Gratz, Kentucky
Current Conditions -  °F | °C
As of 1:53 PM on Sunday 23 Nov 2014 (Local Time) from KFFT Reporting Station
Light Rain Light Rain  
Wind Chill: 55°   Ceiling: 7000
Heat Index: 55°   Visibility: 9mi
Dew Point: 46°   Wind: 8mph
Humidity: 72%   Direction: 130°SE
Pressure: 29.73"   Gusts: NA
Location:  38.4804°N, 84.8067°W
Report Text: KFFT 231853Z AUTO 13007KT 9SM -RA SCT055 BKN070 OVC090 13/08 A2973 RMK AO2 RAB39 SLP067 P0000 T01280078
Loading
Personal Weather Stations






























Interactive Weather Map New forecast layout! Learn more

10-Day Weather Forecast

Advertisements
Track Severe Weather on mobile